createdAt,value
2023-02-01T00:01:56.227Z,101516.88
2023-02-01T00:03:57.828Z,101520.38
2023-02-01T00:06:00.422Z,101520.38
2023-02-01T00:08:01.901Z,101510.75
2023-02-01T00:10:05.123Z,101517.75
2023-02-01T00:12:06.612Z,101513.38
2023-02-01T00:14:09.199Z,101515.13
2023-02-01T00:16:22.000Z,101508.16
2023-02-01T00:18:24.113Z,101510.81
2023-02-01T00:20:25.588Z,101512.56
2023-02-01T00:22:27.037Z,101487.25
2023-02-01T00:24:28.557Z,101497.72
2023-02-01T00:26:44.000Z,101502.09
2023-02-01T00:28:46.393Z,101485.50
2023-02-01T00:30:47.951Z,101482.88
2023-02-01T00:32:49.484Z,101480.28
2023-02-01T00:34:50.994Z,101486.38
2023-02-01T00:36:52.460Z,101489.88
2023-02-01T00:38:54.881Z,101475.91
2023-02-01T00:41:03.742Z,101480.28
2023-02-01T00:43:05.130Z,101482.00
2023-02-01T00:45:07.208Z,101485.50
2023-02-01T00:47:08.827Z,101487.25
2023-02-01T00:49:10.365Z,101481.13
2023-02-01T00:51:14.592Z,101479.38
2023-02-01T00:53:16.179Z,101470.66
2023-02-01T00:55:17.678Z,101481.13
2023-02-01T00:57:19.151Z,101480.25
2023-02-01T00:59:20.667Z,101468.03
2023-02-01T01:01:25.197Z,101468.03
2023-02-01T01:03:26.668Z,101470.66
2023-02-01T01:05:30.701Z,101460.19
2023-02-01T01:07:32.169Z,101462.81
2023-02-01T01:09:33.860Z,101460.19
2023-02-01T01:11:38.479Z,101468.03
2023-02-01T01:13:40.637Z,101472.41
2023-02-01T01:15:43.031Z,101454.94
2023-02-01T01:17:44.634Z,101458.44
2023-02-01T01:19:46.085Z,101451.44
2023-02-01T01:21:47.668Z,101451.44
2023-02-01T01:23:49.269Z,101444.47
2023-02-01T01:25:50.823Z,101448.84
2023-02-01T01:27:52.516Z,101442.72
2023-02-01T01:29:53.957Z,101442.72
2023-02-01T01:31:55.520Z,101438.34
2023-02-01T01:33:59.419Z,101434.84
2023-02-01T01:36:00.911Z,101435.72
2023-02-01T01:38:03.077Z,101419.13
2023-02-01T01:40:06.518Z,101425.25
2023-02-01T01:42:13.067Z,101427.00
2023-02-01T01:44:51.861Z,101430.50
2023-02-01T01:46:53.394Z,101414.78
2023-02-01T01:49:10.512Z,101406.03
2023-02-01T01:51:15.424Z,101420.00
2023-02-01T01:53:24.287Z,101422.63
2023-02-01T01:55:27.031Z,101418.25
2023-02-01T01:57:34.534Z,101399.94
2023-02-01T01:59:39.757Z,101403.41
2023-02-01T02:01:41.292Z,101388.56
2023-02-01T02:03:48.668Z,101392.94
2023-02-01T02:05:53.048Z,101385.09
2023-02-01T02:07:59.086Z,101393.81
2023-02-01T02:10:02.536Z,101392.06
2023-02-01T02:12:04.310Z,101385.09
2023-02-01T02:14:09.498Z,101391.19
2023-02-01T02:16:10.959Z,101381.59
2023-02-01T02:18:23.284Z,101386.81
2023-02-01T02:20:36.448Z,101388.56
2023-02-01T02:22:47.073Z,101377.22
2023-02-01T02:25:17.280Z,101378.97
2023-02-01T02:27:27.736Z,101374.59
2023-02-01T02:29:41.203Z,101354.53
2023-02-01T02:32:04.487Z,101373.72
2023-02-01T02:34:09.093Z,101344.91
2023-02-01T02:36:20.616Z,101354.53
2023-02-01T02:38:48.459Z,101346.66
2023-02-01T02:41:12.946Z,101349.28
2023-02-01T02:43:42.660Z,101346.66
2023-02-01T02:46:10.198Z,101338.81
2023-02-01T02:48:26.173Z,101336.19
2023-02-01T02:51:02.191Z,101351.03
2023-02-01T02:53:32.542Z,101337.94
2023-02-01T02:55:36.723Z,101341.41
2023-02-01T02:58:00.204Z,101336.19
2023-02-01T03:00:24.535Z,101344.03
2023-02-01T03:02:47.207Z,101333.56
2023-02-01T03:04:57.188Z,101328.28
2023-02-01T03:06:58.752Z,101325.69
2023-02-01T03:09:05.405Z,101334.44
2023-02-01T03:11:06.835Z,101314.34
2023-02-01T03:13:18.790Z,101314.34
2023-02-01T03:15:25.224Z,101314.34
2023-02-01T03:17:35.017Z,101301.22
2023-02-01T03:19:44.585Z,101300.34
2023-02-01T03:24:05.563Z,101285.53
2023-02-01T03:26:13.278Z,101292.50
2023-02-01T03:28:20.301Z,101285.53
2023-02-01T03:30:28.173Z,101297.75
2023-02-01T03:32:30.408Z,101276.78
2023-02-01T03:34:31.899Z,101282.03
2023-02-01T03:37:05.630Z,101280.28
2023-02-01T03:39:10.328Z,101278.56
2023-02-01T03:41:42.720Z,101284.66
2023-02-01T03:43:56.648Z,101288.13
2023-02-01T03:46:03.693Z,101293.34
2023-02-01T03:48:06.106Z,101298.56
2023-02-01T03:50:26.358Z,101289.84
2023-02-01T03:52:32.571Z,101292.47
2023-02-01T03:54:34.726Z,101277.63
2023-02-01T03:56:39.313Z,101276.75
2023-02-01T03:58:40.988Z,101290.72
2023-02-01T04:00:47.154Z,101278.50
2023-02-01T04:02:49.432Z,101283.72
2023-02-01T04:04:50.966Z,101282.84
2023-02-01T04:06:52.763Z,101281.97
2023-02-01T04:08:54.225Z,101266.28
2023-02-01T04:10:55.681Z,101267.13
2023-02-01T04:12:57.143Z,101262.72
2023-02-01T04:14:59.171Z,101244.41
2023-02-01T04:17:00.709Z,101247.03
2023-02-01T04:19:02.220Z,101249.66
2023-02-01T04:21:04.025Z,101250.50
2023-02-01T04:23:05.477Z,101239.19
2023-02-01T04:25:08.949Z,101234.81
2023-02-01T04:27:10.450Z,101229.59
2023-02-01T04:29:27.249Z,101237.44
2023-02-01T04:31:28.764Z,101231.38
2023-02-01T04:33:30.903Z,101231.38
2023-02-01T04:35:32.402Z,101223.53
2023-02-01T04:37:34.226Z,101221.81
2023-02-01T04:39:35.704Z,101213.94
2023-02-01T04:41:37.139Z,101226.16
2023-02-01T04:43:38.547Z,101220.06
2023-02-01T04:45:39.957Z,101222.66
2023-02-01T04:47:41.357Z,101216.56
2023-02-01T04:49:42.940Z,101204.38
2023-02-01T04:51:44.748Z,101218.31
2023-02-01T04:53:46.249Z,101209.59
2023-02-01T04:55:49.658Z,101202.63
2023-02-01T04:57:51.088Z,101205.25
2023-02-01T04:59:52.510Z,101210.47
2023-02-01T05:01:53.930Z,101212.22
2023-02-01T05:03:55.626Z,101205.25
2023-02-01T05:05:57.445Z,101206.97
2023-02-01T05:07:59.407Z,101194.78
2023-02-01T05:10:00.837Z,101191.28
2023-02-01T05:12:20.712Z,101192.16
2023-02-01T05:14:22.184Z,101196.50
2023-02-01T05:16:23.680Z,101192.16
2023-02-01T05:18:25.115Z,101200.00
2023-02-01T05:20:26.666Z,101199.13
2023-02-01T05:22:28.138Z,101193.91
2023-02-01T05:24:29.603Z,101198.25
2023-02-01T05:26:31.159Z,101200.00
2023-02-01T05:28:32.633Z,101191.28
2023-02-01T05:30:36.131Z,101199.13
2023-02-01T05:32:37.688Z,101194.78
2023-02-01T05:34:39.187Z,101178.19
2023-02-01T05:36:41.319Z,101197.38
2023-02-01T05:38:42.748Z,101198.25
2023-02-01T05:40:50.377Z,101206.09
2023-02-01T05:42:51.787Z,101198.25
2023-02-01T05:44:53.220Z,101190.41
2023-02-01T05:46:54.694Z,101196.53
2023-02-01T05:48:56.215Z,101190.41
2023-02-01T05:50:57.694Z,101194.78
2023-02-01T05:52:59.108Z,101200.88
2023-02-01T05:55:00.577Z,101191.28
2023-02-01T05:57:02.061Z,101193.91
2023-02-01T05:59:03.485Z,101197.38
2023-02-01T06:01:05.119Z,101196.50
2023-02-01T06:03:07.613Z,101202.63
2023-02-01T06:05:09.470Z,101193.03
2023-02-01T06:07:11.371Z,101196.50
2023-02-01T06:09:12.978Z,101206.97
2023-02-01T06:11:30.564Z,101202.63
2023-02-01T06:13:34.580Z,101205.22
2023-02-01T06:15:38.338Z,101206.09
2023-02-01T06:17:42.393Z,101224.41
2023-02-01T06:19:44.961Z,101215.69
2023-02-01T06:21:46.685Z,101211.34
2023-02-01T06:23:48.145Z,101208.72
2023-02-01T06:25:49.751Z,101211.34
2023-02-01T06:27:51.296Z,101220.94
2023-02-01T06:29:52.823Z,101243.59
2023-02-01T06:31:54.384Z,101229.66
2023-02-01T06:33:55.915Z,101227.91
2023-02-01T06:35:59.482Z,101236.63
2023-02-01T06:38:01.023Z,101229.66
2023-02-01T06:40:02.477Z,101233.13
2023-02-01T06:42:04.868Z,101222.69
2023-02-01T06:44:06.396Z,101222.69
2023-02-01T06:46:10.817Z,101220.06
2023-02-01T06:48:12.321Z,101217.44
2023-02-01T06:50:13.857Z,101217.44
2023-02-01T06:52:15.285Z,101229.66
2023-02-01T06:54:16.854Z,101230.53
2023-02-01T06:56:18.949Z,101230.53
2023-02-01T06:58:20.508Z,101239.25
2023-02-01T07:00:25.978Z,101236.63
2023-02-01T07:02:27.643Z,101240.97
2023-02-01T07:04:29.099Z,101226.16
2023-02-01T07:06:30.564Z,101220.94
2023-02-01T07:08:34.169Z,101226.16
2023-02-01T07:10:35.891Z,101216.56
2023-02-01T07:12:37.397Z,101231.41
2023-02-01T07:14:38.843Z,101239.25
2023-02-01T07:16:40.405Z,101235.75
2023-02-01T07:18:41.934Z,101240.13
2023-02-01T07:20:43.753Z,101233.16
2023-02-01T07:22:45.180Z,101250.59
2023-02-01T07:24:55.887Z,101247.97
2023-02-01T07:26:57.315Z,101252.38
2023-02-01T07:28:58.738Z,101247.13
2023-02-01T07:31:07.589Z,101255.88
2023-02-01T07:33:09.008Z,101247.13
2023-02-01T07:35:10.422Z,101253.25
2023-02-01T07:37:11.919Z,101253.25
2023-02-01T07:39:13.397Z,101259.34
2023-02-01T07:41:15.607Z,101254.13
2023-02-01T07:43:17.381Z,101262.84
2023-02-01T07:45:21.609Z,101274.19
2023-02-01T07:47:26.389Z,101287.28
2023-02-01T07:49:27.834Z,101279.41
2023-02-01T07:51:29.310Z,101291.63
2023-02-01T07:53:32.103Z,101274.19
2023-02-01T07:55:34.191Z,101278.56
2023-02-01T07:57:35.650Z,101273.31
2023-02-01T07:59:57.030Z,101287.28
2023-02-01T08:01:58.465Z,101288.16
2023-02-01T08:04:02.922Z,101285.53
2023-02-01T08:06:05.395Z,101289.91
2023-02-01T08:08:07.427Z,101281.16
2023-02-01T08:10:12.063Z,101293.34
2023-02-01T08:12:13.515Z,101298.63
2023-02-01T08:14:14.955Z,101302.13
2023-02-01T08:16:18.108Z,101298.63
2023-02-01T08:18:19.851Z,101294.25
2023-02-01T08:20:24.996Z,101303.84
2023-02-01T08:22:26.761Z,101299.50
2023-02-01T08:24:28.209Z,101293.38
2023-02-01T08:26:29.708Z,101292.50
2023-02-01T08:28:31.145Z,101295.13
2023-02-01T08:30:32.702Z,101288.16
2023-02-01T08:32:34.644Z,101293.38
2023-02-01T08:34:36.075Z,101293.38
2023-02-01T08:36:39.138Z,101298.63
2023-02-01T08:38:41.105Z,101293.38
2023-02-01T08:40:42.588Z,101289.00
2023-02-01T08:42:53.276Z,101300.38
2023-02-01T08:44:54.708Z,101296.03
2023-02-01T08:46:56.145Z,101296.00
2023-02-01T08:48:57.677Z,101295.13
2023-02-01T08:51:03.872Z,101295.13
2023-02-01T08:53:05.331Z,101294.28
2023-02-01T08:55:07.571Z,101299.50
2023-02-01T08:57:10.457Z,101298.63
2023-02-01T08:59:11.907Z,101296.00
2023-02-01T09:01:17.940Z,101304.75
2023-02-01T09:03:20.139Z,101303.00
2023-02-01T09:05:23.338Z,101293.38
2023-02-01T09:07:24.868Z,101294.25
2023-02-01T09:09:28.595Z,101296.00
2023-02-01T09:11:30.004Z,101290.75
2023-02-01T09:13:31.747Z,101289.00
2023-02-01T09:15:33.343Z,101289.00
2023-02-01T09:17:35.269Z,101275.03
2023-02-01T09:19:36.723Z,101282.03
2023-02-01T09:21:38.172Z,101282.91
2023-02-01T09:23:39.602Z,101280.28
2023-02-01T09:25:41.079Z,101280.28
2023-02-01T09:27:42.497Z,101277.63
2023-02-01T09:29:43.938Z,101277.63
2023-02-01T09:31:57.330Z,101270.63
2023-02-01T09:34:04.038Z,101273.25
2023-02-01T09:36:06.112Z,101264.53
2023-02-01T09:38:07.543Z,101267.16
2023-02-01T09:40:15.171Z,101254.94
2023-02-01T09:42:35.769Z,101265.41
2023-02-01T09:45:04.933Z,101254.03
2023-02-01T09:47:13.180Z,101259.25
2023-02-01T09:49:24.352Z,101259.25
2023-02-01T09:51:31.313Z,101260.97
2023-02-01T09:53:43.189Z,101255.72
2023-02-01T09:55:48.500Z,101258.34
2023-02-01T09:58:01.212Z,101261.84
2023-02-01T10:00:08.173Z,101265.34
2023-02-01T10:02:22.699Z,101260.97
2023-02-01T10:04:24.330Z,101247.88
2023-02-01T10:06:37.830Z,101262.72
2023-02-01T10:09:16.626Z,101262.72
2023-02-01T10:11:50.380Z,101255.75
2023-02-01T10:14:03.944Z,101251.38
2023-02-01T10:16:20.154Z,101234.78
2023-02-01T10:18:24.328Z,101243.50
2023-02-01T10:20:40.894Z,101233.91
2023-02-01T10:23:19.169Z,101230.41
2023-02-01T10:25:23.910Z,101220.78
2023-02-01T10:27:36.606Z,101225.16
2023-02-01T10:29:41.082Z,101224.28
2023-02-01T10:31:42.934Z,101233.03
2023-02-01T10:33:50.312Z,101215.56
2023-02-01T10:36:00.422Z,101212.09
2023-02-01T10:38:03.145Z,101212.13
2023-02-01T10:40:17.757Z,101207.75
2023-02-01T10:42:22.502Z,101208.66
2023-02-01T10:44:31.121Z,101203.44
2023-02-01T10:46:34.489Z,101210.38
2023-02-01T10:48:37.408Z,101192.94
2023-02-01T10:50:50.369Z,101192.06
2023-02-01T10:53:10.124Z,101187.72
2023-02-01T10:55:39.905Z,101179.84
2023-02-01T10:57:42.095Z,101181.59
2023-02-01T10:59:45.732Z,101173.72
2023-02-01T11:01:49.991Z,101167.59
2023-02-01T11:03:56.909Z,101164.97
2023-02-01T11:05:58.617Z,101146.63
2023-02-01T11:08:01.352Z,101164.09
2023-02-01T11:10:03.544Z,101158.00
2023-02-01T11:12:05.304Z,101144.91
2023-02-01T11:14:17.035Z,101142.31
2023-02-01T11:16:19.959Z,101133.59
2023-02-01T11:18:28.555Z,101124.88
2023-02-01T11:20:32.677Z,101131.00
2023-02-01T11:22:34.225Z,101118.78
2023-02-01T11:24:39.153Z,101119.63
2023-02-01T11:26:42.495Z,101110.91
2023-02-01T11:28:53.425Z,101096.06
2023-02-01T11:30:57.935Z,101107.41
2023-02-01T11:33:00.784Z,101101.31
2023-02-01T11:35:06.673Z,101094.34
2023-02-01T11:37:19.557Z,101067.31
2023-02-01T11:39:24.087Z,101065.59
2023-02-01T11:41:28.623Z,101069.13
2023-02-01T11:43:30.355Z,101049.94
2023-02-01T11:45:38.502Z,101056.94
2023-02-01T11:47:41.494Z,101053.47
2023-02-01T11:49:43.660Z,101056.94
2023-02-01T11:52:11.624Z,101055.22
2023-02-01T11:54:29.287Z,101041.25
2023-02-01T11:57:06.057Z,101033.41
2023-02-01T11:59:13.431Z,101009.88
2023-02-01T12:01:53.687Z,100988.06
2023-02-01T12:04:04.711Z,100998.53
2023-02-01T12:06:21.092Z,100977.59
2023-02-01T12:08:48.263Z,100967.13
2023-02-01T12:10:55.693Z,100962.75
2023-02-01T12:12:57.028Z,100965.38
2023-02-01T12:15:29.913Z,100970.59
2023-02-01T12:18:08.816Z,101013.34
2023-02-01T12:20:19.401Z,101124.13
2023-02-01T12:22:48.983Z,101138.97
2023-02-01T12:25:17.270Z,101153.72
2023-02-01T12:27:43.874Z,101111.69
2023-02-01T12:30:11.629Z,101117.59
2023-02-01T12:32:27.290Z,101127.91
2023-02-01T12:34:38.270Z,101129.59
2023-02-01T12:36:58.472Z,101141.75
2023-02-01T12:39:02.687Z,101146.88
2023-02-01T12:41:41.372Z,101158.06
2023-02-01T12:43:56.475Z,101164.91
2023-02-01T12:46:10.022Z,101157.03
2023-02-01T12:48:38.386Z,101163.94
2023-02-01T12:50:54.410Z,101155.31
2023-02-01T12:53:08.612Z,101143.19
2023-02-01T12:55:54.255Z,101131.06
2023-02-01T12:58:27.965Z,101122.53
2023-02-01T13:00:40.716Z,101131.34
2023-02-01T13:02:51.252Z,101135.72
2023-02-01T13:05:11.240Z,101133.16
2023-02-01T13:07:18.024Z,101141.00
2023-02-01T13:09:35.429Z,101142.75
2023-02-01T13:11:43.331Z,101133.22
2023-02-01T13:13:59.347Z,101138.47
2023-02-01T13:16:29.678Z,101137.63
2023-02-01T13:18:39.130Z,101142.06
2023-02-01T13:20:50.659Z,101139.47
2023-02-01T13:23:02.222Z,101126.47
2023-02-01T13:25:15.835Z,101129.19
2023-02-01T13:27:18.236Z,101124.88
2023-02-01T13:29:21.869Z,101126.66
2023-02-01T13:31:23.344Z,101129.28
2023-02-01T13:33:54.736Z,101131.06
2023-02-01T13:36:21.525Z,101135.44
2023-02-01T13:39:00.853Z,101131.97
2023-02-01T13:41:27.660Z,101148.53
2023-02-01T13:43:32.458Z,101133.69
2023-02-01T13:45:38.022Z,101133.72
2023-02-01T13:47:43.091Z,101142.44
2023-02-01T13:49:44.598Z,101151.16
2023-02-01T13:51:49.637Z,101152.03
2023-02-01T13:53:51.169Z,101150.28
2023-02-01T13:55:59.873Z,101145.91
2023-02-01T13:58:12.303Z,101153.78
2023-02-01T14:00:36.064Z,101142.44
2023-02-01T14:02:41.533Z,101144.16
2023-02-01T14:04:49.443Z,101141.56
2023-02-01T14:06:54.330Z,101145.91
2023-02-01T14:09:14.090Z,101138.91
2023-02-01T14:11:54.391Z,101137.19
2023-02-01T14:13:55.844Z,101144.16
2023-02-01T14:16:03.561Z,101152.91
2023-02-01T14:18:42.134Z,101138.06
2023-02-01T14:20:49.683Z,101140.69
2023-02-01T14:22:51.127Z,101135.47
2023-02-01T14:24:55.532Z,101139.81
2023-02-01T14:27:00.089Z,101138.06
2023-02-01T14:29:20.356Z,101139.81
2023-02-01T14:31:51.742Z,101138.03
2023-02-01T14:33:58.947Z,101132.81
2023-02-01T14:36:06.871Z,101128.44
2023-02-01T14:38:12.210Z,101137.16
2023-02-01T14:40:13.656Z,101131.94
2023-02-01T14:42:20.516Z,101119.69
2023-02-01T14:44:30.880Z,101128.44
2023-02-01T14:47:07.894Z,101134.53
2023-02-01T14:49:11.067Z,101126.66
2023-02-01T14:51:16.308Z,101138.84
2023-02-01T14:53:28.516Z,101137.09
2023-02-01T14:55:41.824Z,101137.09
2023-02-01T14:57:46.675Z,101139.72
2023-02-01T14:59:50.299Z,101138.81
2023-02-01T15:01:57.419Z,101135.31
2023-02-01T15:04:22.946Z,101137.03
2023-02-01T15:06:29.058Z,101146.63
2023-02-01T15:08:40.173Z,101133.53
2023-02-01T15:10:46.318Z,101139.63
2023-02-01T15:12:50.284Z,101142.22
2023-02-01T15:15:17.411Z,101150.09
2023-02-01T15:17:20.702Z,101137.84
2023-02-01T15:19:28.658Z,101148.28
2023-02-01T15:21:32.845Z,101153.47
2023-02-01T15:23:34.716Z,101151.72
2023-02-01T15:25:39.453Z,101170.03
2023-02-01T15:27:41.033Z,101155.16
2023-02-01T15:29:42.557Z,101164.75
2023-02-01T15:31:47.665Z,101168.25
2023-02-01T15:33:58.620Z,101162.97
2023-02-01T15:36:06.142Z,101154.25
2023-02-01T15:38:25.901Z,101148.13
2023-02-01T15:40:27.488Z,101168.25
2023-02-01T15:42:29.004Z,101177.00
2023-02-01T15:44:41.303Z,101169.13
2023-02-01T15:46:46.164Z,101166.53
2023-02-01T15:48:51.874Z,101191.00
2023-02-01T15:50:56.449Z,101181.38
2023-02-01T15:52:58.052Z,101179.59
2023-02-01T15:55:02.822Z,101195.34
2023-02-01T15:57:06.418Z,101184.84
2023-02-01T15:59:17.926Z,101183.97
2023-02-01T16:01:20.683Z,101188.34
2023-02-01T16:03:35.850Z,101213.66
2023-02-01T16:05:45.602Z,101204.06
2023-02-01T16:07:58.044Z,101240.91
2023-02-01T16:10:07.870Z,101256.66
2023-02-01T16:12:32.485Z,101274.16
2023-02-01T16:14:33.993Z,101271.56
2023-02-01T16:16:35.463Z,101274.16
2023-02-01T16:18:36.903Z,101263.72
2023-02-01T16:20:40.414Z,101259.34
2023-02-01T16:22:41.851Z,101260.22
2023-02-01T16:24:43.467Z,101270.66
2023-02-01T16:26:44.942Z,101280.25
2023-02-01T16:28:46.829Z,101283.75
2023-02-01T16:30:49.703Z,101284.63
2023-02-01T16:32:59.735Z,101308.19
2023-02-01T16:35:01.373Z,101308.22
2023-02-01T16:37:04.377Z,101335.28
2023-02-01T16:39:06.054Z,101350.06
2023-02-01T16:41:09.124Z,101311.66
2023-02-01T16:43:28.938Z,101294.13
2023-02-01T16:45:30.903Z,101273.19
2023-02-01T16:47:32.377Z,101280.16
2023-02-01T16:49:34.618Z,101285.38
2023-02-01T16:51:38.786Z,101283.63
2023-02-01T16:53:53.588Z,101274.91
2023-02-01T16:55:58.237Z,101263.56
2023-02-01T16:57:59.770Z,101287.09
2023-02-01T17:00:17.917Z,101292.31
2023-02-01T17:02:24.611Z,101286.19
2023-02-01T17:04:26.367Z,101282.69
2023-02-01T17:06:31.010Z,101291.41
2023-02-01T17:08:36.126Z,101285.31
2023-02-01T17:10:38.163Z,101288.81
2023-02-01T17:12:41.203Z,101285.34
2023-02-01T17:14:42.776Z,101294.09
2023-02-01T17:16:46.571Z,101274.94
2023-02-01T17:19:01.042Z,101282.84
2023-02-01T17:21:05.430Z,101288.97
2023-02-01T17:23:07.451Z,101286.34
2023-02-01T17:25:17.025Z,101294.22
2023-02-01T17:27:19.097Z,101281.13
2023-02-01T17:29:21.009Z,101297.75
2023-02-01T17:31:22.689Z,101288.16
2023-02-01T17:33:35.972Z,101302.13
2023-02-01T17:35:37.790Z,101291.63
2023-02-01T17:37:39.212Z,101303.88
2023-02-01T17:39:55.629Z,101302.13
2023-02-01T17:41:57.076Z,101322.19
2023-02-01T17:43:58.582Z,101316.94
2023-02-01T17:46:10.664Z,101314.34
2023-02-01T17:48:12.114Z,101320.44
2023-02-01T17:50:13.917Z,101325.69
2023-02-01T17:52:18.619Z,101322.19
2023-02-01T17:54:20.456Z,101323.94
2023-02-01T17:56:26.128Z,101332.66
2023-02-01T17:58:30.379Z,101342.25
2023-02-01T18:00:32.050Z,101334.41
2023-02-01T18:02:33.542Z,101336.16
2023-02-01T18:04:34.991Z,101338.78
2023-02-01T18:06:38.588Z,101342.28
2023-02-01T18:08:40.352Z,101347.50
2023-02-01T18:10:41.795Z,101343.13
2023-02-01T18:12:43.328Z,101330.03
2023-02-01T18:14:44.804Z,101351.00
2023-02-01T18:16:46.304Z,101337.03
2023-02-01T18:18:48.334Z,101340.53
2023-02-01T18:20:50.129Z,101330.03
2023-02-01T18:22:52.076Z,101333.53
2023-02-01T18:24:53.481Z,101327.44
2023-02-01T18:26:55.063Z,101324.81
2023-02-01T18:28:56.608Z,101321.31
2023-02-01T18:30:58.261Z,101330.91
2023-02-01T18:33:00.191Z,101330.03
2023-02-01T18:35:01.744Z,101328.28
2023-02-01T18:37:03.190Z,101333.53
2023-02-01T18:39:04.638Z,101343.13
2023-02-01T18:41:06.071Z,101338.78
2023-02-01T18:43:10.992Z,101334.44
2023-02-01T18:45:23.190Z,101327.44
2023-02-01T18:47:24.747Z,101324.84
2023-02-01T18:49:26.167Z,101343.16
2023-02-01T18:51:27.581Z,101337.94
2023-02-01T18:53:29.455Z,101337.94
2023-02-01T18:55:34.395Z,101333.56
2023-02-01T18:57:35.850Z,101346.66
2023-02-01T18:59:37.520Z,101339.66
2023-02-01T19:01:39.117Z,101339.66
2023-02-01T19:03:43.398Z,101341.41
2023-02-01T19:05:56.264Z,101344.91
2023-02-01T19:07:57.899Z,101354.50
2023-02-01T19:09:59.356Z,101358.00
2023-02-01T19:12:00.904Z,101355.38
2023-02-01T19:14:02.363Z,101349.25
2023-02-01T19:16:11.843Z,101360.63
2023-02-01T19:18:15.265Z,101347.53
2023-02-01T19:20:19.558Z,101346.66
2023-02-01T19:22:21.105Z,101358.88
2023-02-01T19:24:23.715Z,101361.50
2023-02-01T19:26:25.194Z,101371.09
2023-02-01T19:28:26.739Z,101360.63
2023-02-01T19:30:28.166Z,101358.88
2023-02-01T19:32:30.213Z,101355.38
2023-02-01T19:34:32.902Z,101351.91
2023-02-01T19:36:34.351Z,101343.16
2023-02-01T19:38:35.932Z,101359.75
2023-02-01T19:40:37.413Z,101357.13
2023-02-01T19:42:38.891Z,101365.00
2023-02-01T19:44:40.763Z,101370.25
2023-02-01T19:46:42.265Z,101371.97
2023-02-01T19:48:43.756Z,101377.22
2023-02-01T19:50:45.739Z,101376.34
2023-02-01T19:52:47.941Z,101378.94
2023-02-01T19:54:49.381Z,101386.78
2023-02-01T19:56:51.198Z,101387.66
2023-02-01T19:58:52.750Z,101385.91
2023-02-01T20:00:57.316Z,101400.75
2023-02-01T20:02:58.924Z,101398.13
2023-02-01T20:05:00.388Z,101400.75
2023-02-01T20:07:02.100Z,101389.44
2023-02-01T20:09:04.099Z,101390.28
2023-02-01T20:11:06.823Z,101385.91
2023-02-01T20:13:08.234Z,101398.13
2023-02-01T20:15:10.109Z,101399.88
2023-02-01T20:17:14.937Z,101400.81
2023-02-01T20:19:16.485Z,101407.78
2023-02-01T20:21:18.865Z,101402.53
2023-02-01T20:23:20.919Z,101405.16
2023-02-01T20:25:23.196Z,101409.53
2023-02-01T20:27:26.367Z,101414.78
2023-02-01T20:29:27.792Z,101417.38
2023-02-01T20:31:29.880Z,101412.13
2023-02-01T20:33:31.847Z,101409.53
2023-02-01T20:35:33.288Z,101413.03
2023-02-01T20:37:37.670Z,101420.84
2023-02-01T20:39:39.096Z,101428.72
2023-02-01T20:41:41.040Z,101421.72
2023-02-01T20:43:42.530Z,101423.50
2023-02-01T20:45:44.360Z,101429.56
2023-02-01T20:47:55.492Z,101435.69
2023-02-01T20:49:56.973Z,101439.19
2023-02-01T20:51:58.487Z,101426.09
2023-02-01T20:53:59.949Z,101431.31
2023-02-01T20:56:01.540Z,101425.22
2023-02-01T20:58:03.037Z,101443.59
2023-02-01T21:00:10.013Z,101434.84
2023-02-01T21:02:11.475Z,101437.47
2023-02-01T21:04:12.895Z,101430.50
2023-02-01T21:06:14.307Z,101427.88
2023-02-01T21:08:15.857Z,101441.84
2023-02-01T21:10:17.380Z,101433.97
2023-02-01T21:12:18.842Z,101434.84
2023-02-01T21:14:20.543Z,101448.84
2023-02-01T21:16:22.262Z,101445.34
2023-02-01T21:18:23.998Z,101436.59
2023-02-01T21:20:25.483Z,101440.09
2023-02-01T21:22:26.934Z,101450.59
2023-02-01T21:24:28.347Z,101452.31
2023-02-01T21:26:40.790Z,101447.97
2023-02-01T21:28:42.339Z,101449.72
2023-02-01T21:30:44.208Z,101446.22
2023-02-01T21:32:45.690Z,101446.22
2023-02-01T21:34:47.159Z,101447.09
2023-02-01T21:36:48.579Z,101440.97
2023-02-01T21:38:51.896Z,101448.84
2023-02-01T21:41:13.293Z,101445.34
2023-02-01T21:43:14.749Z,101454.94
2023-02-01T21:45:17.729Z,101446.22
2023-02-01T21:47:25.858Z,101445.34
2023-02-01T21:49:28.982Z,101458.44
2023-02-01T21:51:30.935Z,101446.22
2023-02-01T21:53:32.869Z,101460.19
2023-02-01T21:55:34.277Z,101453.19
2023-02-01T21:57:35.699Z,101452.31
2023-02-01T21:59:37.334Z,101459.31
2023-02-01T22:01:40.303Z,101458.44
2023-02-01T22:03:41.712Z,101460.19
2023-02-01T22:05:43.288Z,101461.94
2023-02-01T22:07:44.746Z,101457.56
2023-02-01T22:09:46.315Z,101461.06
2023-02-01T22:11:48.716Z,101454.94
2023-02-01T22:13:50.604Z,101479.41
2023-02-01T22:15:52.276Z,101477.66
2023-02-01T22:17:53.953Z,101471.53
2023-02-01T22:19:55.419Z,101472.41
2023-02-01T22:21:56.876Z,101473.28
2023-02-01T22:23:59.391Z,101477.66
2023-02-01T22:26:02.427Z,101489.91
2023-02-01T22:28:32.595Z,101491.63
2023-02-01T22:30:25.583Z,101498.63
2023-02-01T22:32:27.287Z,101492.50
2023-02-01T22:34:28.721Z,101486.41
2023-02-01T22:36:30.223Z,101492.50
2023-02-01T22:38:33.048Z,101482.91
2023-02-01T22:40:34.495Z,101488.13
2023-02-01T22:42:35.953Z,101493.38
2023-02-01T22:44:37.450Z,101493.38
2023-02-01T22:46:40.072Z,101496.88
2023-02-01T22:48:43.391Z,101493.38
2023-02-01T22:50:45.326Z,101487.28
2023-02-01T22:52:46.847Z,101495.13
2023-02-01T22:54:48.328Z,101487.28
2023-02-01T22:56:50.352Z,101493.38
2023-02-01T22:58:56.736Z,101499.50
2023-02-01T23:01:08.048Z,101496.00
2023-02-01T23:03:09.763Z,101489.06
2023-02-01T23:05:11.284Z,101502.16
2023-02-01T23:07:12.762Z,101501.28
2023-02-01T23:09:15.809Z,101494.31
2023-02-01T23:11:17.294Z,101490.81
2023-02-01T23:13:18.734Z,101506.53
2023-02-01T23:15:20.262Z,101518.75
2023-02-01T23:17:23.705Z,101522.25
2023-02-01T23:19:25.162Z,101514.41
2023-02-01T23:21:27.253Z,101528.38
2023-02-01T23:23:28.687Z,101524.88
2023-02-01T23:25:30.161Z,101528.38
2023-02-01T23:27:31.620Z,101541.50
2023-02-01T23:29:33.193Z,101528.41
2023-02-01T23:31:35.728Z,101541.53
2023-02-01T23:33:38.063Z,101540.63
2023-02-01T23:35:39.600Z,101551.09
2023-02-01T23:37:41.187Z,101539.75
2023-02-01T23:39:42.609Z,101552.84
2023-02-01T23:41:44.064Z,101553.72
2023-02-01T23:43:57.716Z,101549.34
2023-02-01T23:45:59.290Z,101561.56
2023-02-01T23:48:00.734Z,101554.59
2023-02-01T23:50:02.425Z,101556.31
2023-02-01T23:52:05.561Z,101565.06
2023-02-01T23:54:09.354Z,101560.69
2023-02-01T23:56:42.403Z,101570.31
2023-02-01T23:58:43.943Z,101563.31
